Terminal Aerodrome Forecast
Issued by NWS Charleston, SC

Home | Current Version | Previous Version | Text Only | Print | Product List | Glossary On
Versions: 1 2 3 4 5 6 7 8 9 10 11 12 13
000
FTUS42 KCHS 191120
TAFSAV
TAF
KSAV 191120Z 1912/2012 25005KT P6SM FEW035
     FM191900 23008KT P6SM VCTS SCT030CB BKN050
     FM192300 18005KT P6SM SCT060=

USA.gov is the U.S. government's official web portal to all federal, state and local government web resources and services.